createdAt,value
2019-05-17T00:00:48.289Z,100806.22
2019-05-17T00:03:21.762Z,100801.70
2019-05-17T00:05:53.261Z,100803.95
2019-05-17T00:08:33.900Z,100799.85
2019-05-17T00:10:59.004Z,100802.67
2019-05-17T00:13:30.664Z,100797.03
2019-05-17T00:16:02.193Z,100794.13
2019-05-17T00:18:34.458Z,100789.19
2019-05-17T00:21:07.691Z,100782.43
2019-05-17T00:23:40.229Z,100775.99
2019-05-17T00:26:12.576Z,100770.13
2019-05-17T00:28:46.786Z,100769.97
2019-05-17T00:31:17.668Z,100765.75
2019-05-17T00:33:50.201Z,100756.90
2019-05-17T00:36:21.876Z,100760.45
2019-05-17T00:38:56.651Z,100763.01
2019-05-17T00:41:27.089Z,100761.88
2019-05-17T00:43:58.702Z,100758.68
2019-05-17T00:46:30.163Z,100753.78
2019-05-17T00:49:02.131Z,100761.38
2019-05-17T00:51:36.700Z,100755.39
2019-05-17T00:54:08.483Z,100757.20
2019-05-17T00:56:40.346Z,100753.53
2019-05-17T00:59:12.564Z,100741.52
2019-05-17T01:01:46.772Z,100742.19
2019-05-17T01:04:18.026Z,100735.45
2019-05-17T01:06:50.448Z,100740.25
2019-05-17T01:09:21.939Z,100726.55
2019-05-17T01:11:53.821Z,100734.23
2019-05-17T01:14:26.569Z,100734.09
2019-05-17T01:16:58.848Z,100736.88
2019-05-17T01:19:30.130Z,100739.70
2019-05-17T01:22:02.543Z,100736.97
2019-05-17T01:24:36.713Z,100734.44
2019-05-17T01:27:09.020Z,100721.03
2019-05-17T01:29:40.425Z,100721.87
2019-05-17T01:32:11.820Z,100717.16
2019-05-17T01:34:43.605Z,100721.20
2019-05-17T01:37:16.986Z,100717.53
2019-05-17T01:39:49.035Z,100713.40
2019-05-17T01:42:21.387Z,100709.77
2019-05-17T01:44:53.026Z,100705.64
2019-05-17T01:47:27.105Z,100711.55
2019-05-17T01:49:59.213Z,100712.27
2019-05-17T01:52:31.705Z,100716.65
2019-05-17T01:55:03.787Z,100718.37
2019-05-17T01:57:37.106Z,100727.47
2019-05-17T02:00:11.214Z,100721.95
2019-05-17T02:02:47.103Z,100712.98
2019-05-17T02:05:18.801Z,100707.30
2019-05-17T02:07:51.325Z,100706.33
2019-05-17T02:10:23.663Z,100704.84
2019-05-17T02:12:57.035Z,100699.50
2019-05-17T02:15:28.681Z,100696.38
2019-05-17T02:18:00.085Z,100698.28
2019-05-17T02:20:33.080Z,100699.84
2019-05-17T02:23:07.264Z,100697.02
2019-05-17T02:25:38.217Z,100692.80
2019-05-17T02:28:12.079Z,100700.51
2019-05-17T02:30:44.136Z,100704.38
2019-05-17T02:33:16.670Z,100695.45
2019-05-17T02:35:48.866Z,100699.75
2019-05-17T02:38:22.412Z,100696.55
2019-05-17T02:40:53.877Z,100709.78
2019-05-17T02:43:26.042Z,100705.56
2019-05-17T02:45:57.961Z,100698.62
2019-05-17T02:48:29.651Z,100695.12
2019-05-17T02:51:03.484Z,100701.52
2019-05-17T02:53:34.827Z,100700.64
2019-05-17T02:56:07.343Z,100690.23
2019-05-17T02:58:39.264Z,100687.11
2019-05-17T03:01:12.869Z,100684.16
2019-05-17T03:03:44.743Z,100684.84
2019-05-17T03:06:16.409Z,100687.99
2019-05-17T03:08:48.409Z,100684.55
2019-05-17T03:11:22.650Z,100675.06
2019-05-17T03:13:54.010Z,100671.02
2019-05-17T03:16:26.546Z,100673.72
2019-05-17T03:18:57.664Z,100670.93
2019-05-17T03:21:28.977Z,100668.23
2019-05-17T03:24:03.172Z,100666.12
2019-05-17T03:26:33.713Z,100662.20
2019-05-17T03:29:06.268Z,100661.50
2019-05-17T03:31:48.995Z,100660.36
2019-05-17T03:34:16.944Z,100656.40
2019-05-17T03:36:47.177Z,100666.00
2019-05-17T03:39:18.427Z,100673.84
2019-05-17T03:41:49.788Z,100668.74
2019-05-17T03:44:22.615Z,100667.14
2019-05-17T03:46:54.441Z,100668.11
2019-05-17T03:49:26.686Z,100666.04
2019-05-17T03:51:58.139Z,100666.42
2019-05-17T03:54:32.258Z,100664.95
2019-05-17T03:57:03.298Z,100663.64
2019-05-17T03:59:34.610Z,100658.55
2019-05-17T04:02:07.186Z,100661.28
2019-05-17T04:04:38.583Z,100659.21
2019-05-17T04:07:12.744Z,100659.43
2019-05-17T04:09:43.827Z,100659.73
2019-05-17T04:12:15.385Z,100655.77
2019-05-17T04:14:47.347Z,100657.58
2019-05-17T04:17:22.579Z,100662.75
2019-05-17T04:19:53.583Z,100661.77
2019-05-17T04:22:26.220Z,100667.75
2019-05-17T04:24:58.742Z,100659.15
2019-05-17T04:27:32.773Z,100664.84
2019-05-17T04:30:04.828Z,100664.20
2019-05-17T04:32:36.986Z,100671.15
2019-05-17T04:35:12.568Z,100680.22
2019-05-17T04:37:44.510Z,100671.69
2019-05-17T04:40:15.729Z,100667.98
2019-05-17T04:42:46.597Z,100666.63
2019-05-17T04:45:18.249Z,100665.20
2019-05-17T04:47:52.669Z,100663.47
2019-05-17T04:50:23.218Z,100659.20
2019-05-17T04:52:55.334Z,100648.33
2019-05-17T04:55:27.108Z,100640.42
2019-05-17T04:57:59.330Z,100642.89
2019-05-17T05:00:34.009Z,100641.34
2019-05-17T05:03:06.415Z,100638.42
2019-05-17T05:05:42.547Z,100644.77
2019-05-17T05:08:13.479Z,100637.61
2019-05-17T05:10:44.956Z,100639.88
2019-05-17T05:13:16.562Z,100638.30
2019-05-17T05:15:47.544Z,100634.88
2019-05-17T05:18:21.906Z,100631.41
2019-05-17T05:20:52.653Z,100629.92
2019-05-17T05:23:24.400Z,100623.48
2019-05-17T05:25:56.378Z,100624.67
2019-05-17T05:28:27.735Z,100625.55
2019-05-17T05:31:01.849Z,100623.77
2019-05-17T05:33:33.510Z,100625.55
2019-05-17T05:36:06.453Z,100621.41
2019-05-17T05:38:37.907Z,100628.79
2019-05-17T05:41:12.230Z,100625.02
2019-05-17T05:43:44.746Z,100616.84
2019-05-17T05:46:16.389Z,100620.95
2019-05-17T05:48:48.824Z,100620.41
2019-05-17T05:51:21.647Z,100620.12
2019-05-17T05:53:54.320Z,100627.59
2019-05-17T05:56:26.492Z,100626.08
2019-05-17T05:58:58.703Z,100619.03
2019-05-17T06:01:32.503Z,100618.94
2019-05-17T06:04:04.136Z,100618.84
2019-05-17T06:06:36.856Z,100618.05
2019-05-17T06:09:12.005Z,100621.25
2019-05-17T06:11:44.048Z,100619.39
2019-05-17T06:14:15.594Z,100618.51
2019-05-17T06:16:48.009Z,100619.39
2019-05-17T06:19:22.246Z,100621.78
2019-05-17T06:21:53.745Z,100616.87
2019-05-17T06:24:27.507Z,100624.37
2019-05-17T06:27:03.231Z,100626.13
2019-05-17T06:29:35.349Z,100624.48
2019-05-17T06:32:07.723Z,100623.44
2019-05-17T06:34:42.079Z,100620.20
2019-05-17T06:37:16.565Z,100613.05
2019-05-17T06:39:48.654Z,100612.55
2019-05-17T06:42:21.672Z,100608.02
2019-05-17T06:44:54.509Z,100612.77
2019-05-17T06:47:25.724Z,100614.55
2019-05-17T06:52:58.542Z,100616.95
2019-05-17T06:55:31.491Z,100617.05
2019-05-17T06:58:02.453Z,100616.13
2019-05-17T07:00:33.597Z,100616.27
2019-05-17T07:03:04.982Z,100617.84
2019-05-17T07:05:40.352Z,100614.70
2019-05-17T07:08:11.006Z,100623.28
2019-05-17T07:10:46.670Z,100619.66
2019-05-17T07:13:19.671Z,100620.84
2019-05-17T07:15:51.071Z,100627.80
2019-05-17T07:18:22.261Z,100625.67
2019-05-17T07:20:53.255Z,100628.66
2019-05-17T07:23:24.648Z,100630.06
2019-05-17T07:25:55.398Z,100630.30
2019-05-17T07:28:25.766Z,100633.94
2019-05-17T07:30:59.630Z,100632.53
2019-05-17T07:33:30.683Z,100629.48
2019-05-17T07:36:01.585Z,100624.69
2019-05-17T07:38:32.678Z,100628.20
2019-05-17T07:41:03.588Z,100623.05
2019-05-17T07:43:34.004Z,100626.06
2019-05-17T07:46:05.384Z,100626.09
2019-05-17T07:48:36.108Z,100626.70
2019-05-17T07:51:10.123Z,100628.91
2019-05-17T07:53:41.091Z,100629.42
2019-05-17T07:56:12.367Z,100628.62
2019-05-17T07:58:44.701Z,100629.45
2019-05-17T08:01:16.284Z,100621.16
2019-05-17T08:03:50.112Z,100627.80
2019-05-17T08:06:20.076Z,100626.39
2019-05-17T08:08:51.270Z,100629.98
2019-05-17T08:11:23.144Z,100631.08
2019-05-17T08:13:55.463Z,100620.64
2019-05-17T08:16:26.990Z,100626.45
2019-05-17T08:18:57.287Z,100627.91
2019-05-17T08:21:30.490Z,100623.12
2019-05-17T08:24:01.729Z,100622.69
2019-05-17T08:26:32.279Z,100627.06
2019-05-17T08:29:03.100Z,100623.55
2019-05-17T08:31:33.645Z,100621.72
2019-05-17T08:34:05.080Z,100616.92
2019-05-17T08:36:35.930Z,100618.64
2019-05-17T08:39:06.734Z,100617.67
2019-05-17T08:41:37.333Z,100616.02
2019-05-17T08:44:10.049Z,100623.31
2019-05-17T08:46:40.986Z,100619.77
2019-05-17T08:49:11.624Z,100619.82
2019-05-17T08:51:44.547Z,100624.77
2019-05-17T08:54:15.760Z,100626.27
2019-05-17T08:56:50.290Z,100631.02
2019-05-17T08:59:21.860Z,100633.96
2019-05-17T09:01:53.517Z,100631.25
2019-05-17T09:04:25.677Z,100629.51
2019-05-17T09:07:00.046Z,100623.29
2019-05-17T09:09:32.762Z,100613.64
2019-05-17T09:12:04.477Z,100616.62
2019-05-17T09:14:36.318Z,100611.73
2019-05-17T09:17:10.318Z,100608.68
2019-05-17T09:19:40.834Z,100609.99
2019-05-17T09:22:11.462Z,100607.53
2019-05-17T09:24:42.949Z,100611.59
2019-05-17T09:27:19.585Z,100615.34
2019-05-17T09:29:50.775Z,100609.83
2019-05-17T09:32:21.927Z,100600.72
2019-05-17T09:34:53.410Z,100603.50
2019-05-17T09:37:26.059Z,100607.47
2019-05-17T09:39:57.134Z,100605.43
2019-05-17T09:42:30.024Z,100605.70
2019-05-17T09:45:02.757Z,100599.81
2019-05-17T09:47:33.441Z,100604.87
2019-05-17T09:50:06.256Z,100600.65
2019-05-17T09:52:40.581Z,100595.20
2019-05-17T09:55:12.032Z,100590.90
2019-05-17T09:57:44.759Z,100587.38
2019-05-17T10:00:17.439Z,100595.50
2019-05-17T10:02:47.342Z,100586.08
2019-05-17T10:05:17.265Z,100579.31
2019-05-17T10:07:47.243Z,100584.64
2019-05-17T10:10:20.081Z,100569.96
2019-05-17T10:12:49.966Z,100569.66
2019-05-17T10:15:21.012Z,100561.46
2019-05-17T10:17:51.642Z,100568.48
2019-05-17T10:20:21.745Z,100565.55
2019-05-17T10:22:51.727Z,100569.50
2019-05-17T10:25:21.595Z,100566.86
2019-05-17T10:27:51.500Z,100569.11
2019-05-17T10:30:21.731Z,100563.91
2019-05-17T10:32:52.065Z,100556.00
2019-05-17T10:35:21.808Z,100559.01
2019-05-17T10:37:52.725Z,100562.03
2019-05-17T10:40:23.849Z,100575.75
2019-05-17T10:42:53.758Z,100572.80
2019-05-17T10:45:24.162Z,100573.41
2019-05-17T10:47:53.992Z,100578.25
2019-05-17T10:50:23.757Z,100578.53
2019-05-17T10:52:53.611Z,100576.74
2019-05-17T10:55:23.698Z,100570.44
2019-05-17T10:57:55.754Z,100573.80
2019-05-17T11:00:30.373Z,100571.03
2019-05-17T11:03:02.261Z,100567.02
2019-05-17T11:05:36.881Z,100563.84
2019-05-17T11:08:10.843Z,100562.83
2019-05-17T11:10:42.807Z,100566.77
2019-05-17T11:13:14.399Z,100570.72
2019-05-17T11:15:46.829Z,100569.72
2019-05-17T11:18:18.658Z,100572.30
2019-05-17T11:20:50.191Z,100573.12
2019-05-17T11:23:22.569Z,100580.13
2019-05-17T11:25:55.515Z,100573.94
2019-05-17T11:28:28.231Z,100572.44
2019-05-17T11:31:01.434Z,100582.58
2019-05-17T11:33:33.957Z,100573.44
2019-05-17T11:36:06.960Z,100580.45
2019-05-17T11:38:38.477Z,100580.81
2019-05-17T11:41:21.142Z,100579.95
2019-05-17T11:43:46.116Z,100574.44
2019-05-17T11:46:19.684Z,100574.94
2019-05-17T11:48:51.080Z,100577.56
2019-05-17T11:51:22.686Z,100572.92
2019-05-17T11:53:54.673Z,100573.38
2019-05-17T11:56:26.545Z,100576.13
2019-05-17T11:58:58.385Z,100579.30
2019-05-17T12:01:30.470Z,100578.50
2019-05-17T12:04:03.863Z,100581.02
2019-05-17T12:06:38.480Z,100581.06
2019-05-17T12:09:09.765Z,100580.64
2019-05-17T12:11:40.477Z,100578.55
2019-05-17T12:14:12.435Z,100583.31
2019-05-17T12:16:43.382Z,100587.28
2019-05-17T12:19:13.803Z,100587.77
2019-05-17T12:21:45.252Z,100590.90
2019-05-17T12:24:16.178Z,100583.81
2019-05-17T12:26:47.583Z,100583.25
2019-05-17T12:29:19.805Z,100587.47
2019-05-17T12:31:50.206Z,100587.30
2019-05-17T12:34:21.994Z,100580.71
2019-05-17T12:36:52.430Z,100584.71
2019-05-17T12:39:23.237Z,100585.71
2019-05-17T12:41:53.836Z,100584.70
2019-05-17T12:44:24.823Z,100583.13
2019-05-17T12:46:57.232Z,100587.27
2019-05-17T12:49:28.027Z,100592.04
2019-05-17T12:51:59.874Z,100590.38
2019-05-17T12:54:31.754Z,100585.72
2019-05-17T12:57:04.804Z,100585.35
2019-05-17T12:59:36.476Z,100585.98
2019-05-17T13:02:06.759Z,100587.09
2019-05-17T13:04:37.276Z,100580.00
2019-05-17T13:07:09.331Z,100584.80
2019-05-17T13:09:40.238Z,100592.52
2019-05-17T13:12:11.652Z,100593.91
2019-05-17T13:14:42.733Z,100593.34
2019-05-17T13:17:18.943Z,100589.30
2019-05-17T13:19:59.319Z,100588.16
2019-05-17T13:22:32.363Z,100587.31
2019-05-17T13:25:03.701Z,100588.75
2019-05-17T13:27:38.284Z,100592.05
2019-05-17T13:30:07.705Z,100594.19
2019-05-17T13:32:39.063Z,100599.23
2019-05-17T13:35:09.798Z,100597.97
2019-05-17T13:37:40.157Z,100591.98
2019-05-17T13:40:11.888Z,100594.31
2019-05-17T13:42:42.619Z,100583.86
2019-05-17T13:45:16.644Z,100590.57
2019-05-17T13:47:48.073Z,100594.60
2019-05-17T13:50:19.276Z,100584.89
2019-05-17T13:52:50.574Z,100587.27
2019-05-17T13:55:21.839Z,100588.84
2019-05-17T13:57:52.656Z,100590.48
2019-05-17T14:00:24.381Z,100584.66
2019-05-17T14:02:54.647Z,100572.67
2019-05-17T14:05:25.300Z,100575.73
2019-05-17T14:07:56.841Z,100569.97
2019-05-17T14:10:31.523Z,100570.53
2019-05-17T14:13:01.450Z,100572.06
2019-05-17T14:15:32.937Z,100567.67
2019-05-17T14:18:03.950Z,100563.73
2019-05-17T14:20:34.677Z,100561.21
2019-05-17T14:23:06.025Z,100554.96
2019-05-17T14:25:36.919Z,100553.52
2019-05-17T14:28:27.726Z,100554.59
2019-05-17T14:30:58.428Z,100555.78
2019-05-17T14:33:29.442Z,100551.23
2019-05-17T14:36:00.382Z,100549.77
2019-05-17T14:38:30.716Z,100545.85
2019-05-17T14:41:07.672Z,100541.24
2019-05-17T14:43:35.166Z,100546.22
2019-05-17T14:46:07.196Z,100542.30
2019-05-17T14:48:38.895Z,100536.45
2019-05-17T14:51:09.977Z,100534.38
2019-05-17T14:53:40.796Z,100533.38
2019-05-17T14:56:11.643Z,100528.27
2019-05-17T14:58:42.310Z,100520.14
2019-05-17T15:01:13.634Z,100518.55
2019-05-17T15:03:44.220Z,100524.87
2019-05-17T15:06:15.113Z,100528.27
2019-05-17T15:08:46.521Z,100523.79
2019-05-17T15:11:17.578Z,100519.55
2019-05-17T15:13:47.633Z,100514.87
2019-05-17T15:16:17.451Z,100520.22
2019-05-17T15:18:47.672Z,100524.03
2019-05-17T15:21:17.590Z,100513.11
2019-05-17T15:23:47.803Z,100515.86
2019-05-17T15:26:20.699Z,100507.03
2019-05-17T15:28:51.022Z,100511.60
2019-05-17T15:31:21.142Z,100509.95
2019-05-17T15:33:51.050Z,100506.93
2019-05-17T15:36:21.058Z,100502.53
2019-05-17T15:38:50.967Z,100503.47
2019-05-17T15:41:21.238Z,100499.92
2019-05-17T15:43:51.030Z,100499.92
2019-05-17T15:46:21.532Z,100500.39
2019-05-17T15:48:51.811Z,100493.78
2019-05-17T15:51:21.884Z,100496.55
2019-05-17T15:53:52.135Z,100487.83
2019-05-17T15:56:22.917Z,100489.23
2019-05-17T15:58:53.231Z,100487.92
2019-05-17T16:01:23.778Z,100483.06
2019-05-17T16:03:54.560Z,100484.84
2019-05-17T16:06:24.655Z,100481.19
2019-05-17T16:08:56.107Z,100482.16
2019-05-17T16:11:26.897Z,100477.75
2019-05-17T16:13:58.152Z,100478.66
2019-05-17T16:16:29.220Z,100472.00
2019-05-17T16:19:00.486Z,100471.97
2019-05-17T16:21:32.866Z,100472.88
2019-05-17T16:24:05.624Z,100470.66
2019-05-17T16:26:36.377Z,100468.92
2019-05-17T16:29:07.514Z,100466.69
2019-05-17T16:31:38.149Z,100472.47
2019-05-17T16:34:08.953Z,100466.27
2019-05-17T16:36:39.957Z,100464.87
2019-05-17T16:39:10.208Z,100473.73
2019-05-17T16:41:40.996Z,100470.23
2019-05-17T16:44:14.655Z,100473.34
2019-05-17T16:46:45.389Z,100472.02
2019-05-17T16:49:17.608Z,100472.83
2019-05-17T16:51:50.862Z,100480.28
2019-05-17T16:54:23.351Z,100477.20
2019-05-17T16:56:54.097Z,100476.20
2019-05-17T16:59:25.283Z,100472.66
2019-05-17T17:01:57.373Z,100473.45
2019-05-17T17:04:28.634Z,100472.13
2019-05-17T17:07:01.570Z,100465.08
2019-05-17T17:09:34.144Z,100470.42
2019-05-17T17:12:06.060Z,100467.22
2019-05-17T17:14:37.505Z,100466.24
2019-05-17T17:17:12.331Z,100472.78
2019-05-17T17:19:43.312Z,100467.39
2019-05-17T17:22:15.568Z,100463.77
2019-05-17T17:24:47.341Z,100468.94
2019-05-17T17:27:18.338Z,100473.22
2019-05-17T17:29:49.380Z,100474.94
2019-05-17T17:32:21.877Z,100464.79
2019-05-17T17:34:53.864Z,100463.87
2019-05-17T17:37:24.936Z,100459.44
2019-05-17T17:39:55.935Z,100460.27
2019-05-17T17:42:26.560Z,100465.11
2019-05-17T17:44:58.010Z,100470.70
2019-05-17T17:47:28.579Z,100470.17
2019-05-17T17:49:59.521Z,100477.68
2019-05-17T17:52:30.383Z,100479.41
2019-05-17T17:55:00.699Z,100480.72
2019-05-17T17:57:32.287Z,100479.80
2019-05-17T18:00:03.159Z,100479.31
2019-05-17T18:02:36.221Z,100484.84
2019-05-17T18:05:08.654Z,100491.16
2019-05-17T18:07:40.153Z,100487.39
2019-05-17T18:10:13.895Z,100489.91
2019-05-17T18:12:45.575Z,100487.23
2019-05-17T18:15:19.874Z,100486.20
2019-05-17T18:17:53.088Z,100493.48
2019-05-17T18:20:24.956Z,100498.08
2019-05-17T18:22:56.493Z,100504.86
2019-05-17T18:25:27.812Z,100506.27
2019-05-17T18:27:59.091Z,100515.47
2019-05-17T18:30:30.425Z,100518.14
2019-05-17T18:33:01.897Z,100519.10
2019-05-17T18:35:33.697Z,100522.39
2019-05-17T18:38:06.696Z,100527.55
2019-05-17T18:40:37.899Z,100535.80
2019-05-17T18:43:08.979Z,100531.16
2019-05-17T18:45:41.023Z,100537.20
2019-05-17T18:48:12.538Z,100536.68
2019-05-17T18:50:44.100Z,100539.22
2019-05-17T18:53:16.990Z,100540.39
2019-05-17T18:55:49.620Z,100551.34
2019-05-17T18:58:20.621Z,100551.86
2019-05-17T19:00:52.244Z,100553.42
2019-05-17T19:03:23.457Z,100554.92
2019-05-17T19:05:54.658Z,100555.28
2019-05-17T19:08:25.779Z,100558.20
2019-05-17T19:10:57.818Z,100558.81
2019-05-17T19:13:28.930Z,100562.92
2019-05-17T19:16:05.057Z,100559.65
2019-05-17T19:18:38.316Z,100561.22
2019-05-17T19:21:16.662Z,100567.98
2019-05-17T19:23:58.789Z,100566.89
2019-05-17T19:26:43.371Z,100562.33
2019-05-17T19:29:22.294Z,100556.93
2019-05-17T19:31:55.166Z,100556.38
2019-05-17T19:34:26.702Z,100554.38
2019-05-17T19:36:58.075Z,100559.00
2019-05-17T19:39:29.136Z,100559.83
2019-05-17T19:42:00.276Z,100562.39
2019-05-17T19:44:31.326Z,100561.44
2019-05-17T19:47:02.756Z,100564.34
2019-05-17T19:49:35.391Z,100557.85
2019-05-17T19:52:06.501Z,100557.94
2019-05-17T19:54:40.898Z,100555.09
2019-05-17T19:57:12.507Z,100560.64
2019-05-17T19:59:43.469Z,100550.42
2019-05-17T20:02:17.329Z,100555.80
2019-05-17T20:04:48.526Z,100557.77
2019-05-17T20:07:19.423Z,100554.48
2019-05-17T20:09:50.869Z,100558.15
2019-05-17T20:12:23.802Z,100561.06
2019-05-17T20:14:55.033Z,100560.96
2019-05-17T20:17:31.000Z,100560.40
2019-05-17T20:20:04.772Z,100562.07
2019-05-17T20:22:35.784Z,100552.66
2019-05-17T20:25:08.924Z,100556.52
2019-05-17T20:27:42.318Z,100556.64
2019-05-17T20:30:15.252Z,100563.36
2019-05-17T20:32:47.475Z,100554.52
2019-05-17T20:35:20.319Z,100557.10
2019-05-17T20:37:54.179Z,100554.84
2019-05-17T20:40:27.171Z,100554.31
2019-05-17T20:43:00.547Z,100552.47
2019-05-17T20:45:33.699Z,100557.67
2019-05-17T20:48:07.392Z,100561.66
2019-05-17T20:50:40.106Z,100560.88
2019-05-17T20:53:18.937Z,100554.64
2019-05-17T20:55:46.441Z,100561.53
2019-05-17T20:58:18.087Z,100557.46
2019-05-17T21:00:50.209Z,100563.36
2019-05-17T21:03:22.358Z,100564.83
2019-05-17T21:05:54.619Z,100565.48
2019-05-17T21:08:26.898Z,100564.13
2019-05-17T21:11:00.017Z,100560.56
2019-05-17T21:13:32.559Z,100561.02
2019-05-17T21:16:04.350Z,100564.52
2019-05-17T21:18:35.851Z,100568.83
2019-05-17T21:21:08.418Z,100566.02
2019-05-17T21:23:40.653Z,100560.64
2019-05-17T21:26:12.597Z,100562.25
2019-05-17T21:28:47.090Z,100561.83
2019-05-17T21:31:17.613Z,100561.18
2019-05-17T21:33:49.273Z,100563.71
2019-05-17T21:36:21.542Z,100566.67
2019-05-17T21:38:54.653Z,100563.64
2019-05-17T21:41:26.573Z,100559.67
2019-05-17T21:43:59.351Z,100564.66
2019-05-17T21:46:31.699Z,100566.92
2019-05-17T21:49:04.236Z,100567.69
2019-05-17T21:51:36.264Z,100563.95
2019-05-17T21:54:07.980Z,100563.79
2019-05-17T21:56:40.203Z,100567.63
2019-05-17T21:59:12.802Z,100564.09
2019-05-17T22:01:44.944Z,100562.59
2019-05-17T22:04:16.967Z,100563.84
2019-05-17T22:06:48.451Z,100562.30
2019-05-17T22:09:19.849Z,100561.29
2019-05-17T22:11:52.637Z,100562.36
2019-05-17T22:14:24.280Z,100563.67
2019-05-17T22:16:55.839Z,100560.94
2019-05-17T22:19:27.579Z,100562.23
2019-05-17T22:21:59.357Z,100559.46
2019-05-17T22:24:30.943Z,100560.72
2019-05-17T22:27:02.258Z,100550.54
2019-05-17T22:29:33.788Z,100552.77
2019-05-17T22:32:05.332Z,100556.68
2019-05-17T22:34:37.440Z,100556.13
2019-05-17T22:37:09.062Z,100554.45
2019-05-17T22:39:40.156Z,100564.47
2019-05-17T22:42:11.667Z,100553.85
2019-05-17T22:44:43.583Z,100559.49
2019-05-17T22:47:14.942Z,100549.89
2019-05-17T22:49:46.295Z,100547.95
2019-05-17T22:52:18.053Z,100548.57
2019-05-17T22:54:49.933Z,100549.88
2019-05-17T22:57:21.521Z,100554.55
2019-05-17T22:59:52.914Z,100550.58
2019-05-17T23:02:24.746Z,100554.70
2019-05-17T23:04:56.802Z,100552.46
2019-05-17T23:07:28.373Z,100562.45
2019-05-17T23:10:00.211Z,100562.09
2019-05-17T23:12:31.952Z,100559.63
2019-05-17T23:15:03.740Z,100567.45
2019-05-17T23:17:35.003Z,100567.39
2019-05-17T23:20:07.183Z,100570.60
2019-05-17T23:22:38.982Z,100565.39
2019-05-17T23:25:10.721Z,100568.33
2019-05-17T23:27:42.129Z,100574.42
2019-05-17T23:30:14.397Z,100570.52
2019-05-17T23:32:45.683Z,100570.00
2019-05-17T23:35:17.205Z,100569.91
2019-05-17T23:37:48.405Z,100568.84
2019-05-17T23:40:20.158Z,100569.64
2019-05-17T23:42:52.058Z,100564.42
2019-05-17T23:45:23.742Z,100563.91
2019-05-17T23:47:55.082Z,100562.25
2019-05-17T23:50:26.926Z,100566.80
2019-05-17T23:53:01.001Z,100567.73
2019-05-17T23:55:32.369Z,100562.94
2019-05-17T23:58:04.225Z,100569.13
